createdAt,value
2023-05-08T00:00:35.835Z,18.06
2023-05-08T00:03:04.229Z,18.34
2023-05-08T00:05:32.843Z,18.39
2023-05-08T00:08:01.488Z,17.97
2023-05-08T00:10:33.360Z,18.37
2023-05-08T00:13:07.271Z,18.17
2023-05-08T00:15:40.134Z,18.58
2023-05-08T00:18:09.500Z,18.47
2023-05-08T00:20:37.897Z,18.69
2023-05-08T00:23:06.373Z,18.75
2023-05-08T00:25:36.921Z,18.75
2023-05-08T00:28:06.874Z,18.38
2023-05-08T00:30:36.322Z,18.20
2023-05-08T00:33:05.009Z,18.52
2023-05-08T00:35:32.804Z,18.23
2023-05-08T00:38:00.629Z,18.26
2023-05-08T00:40:29.186Z,18.44
2023-05-08T00:43:00.412Z,18.37
2023-05-08T00:45:34.316Z,18.29
2023-05-08T00:48:04.450Z,18.17
2023-05-08T00:50:35.077Z,18.25
2023-05-08T00:53:04.932Z,18.40
2023-05-08T00:55:33.735Z,18.58
2023-05-08T00:58:02.093Z,18.53
2023-05-08T01:00:35.380Z,17.92
2023-05-08T01:03:06.295Z,18.50
2023-05-08T01:05:35.244Z,18.58
2023-05-08T01:08:03.771Z,18.21
2023-05-08T01:10:40.577Z,18.29
2023-05-08T01:13:21.148Z,18.10
2023-05-08T01:15:53.298Z,18.24
2023-05-08T01:18:23.016Z,18.26
2023-05-08T01:20:54.919Z,18.28
2023-05-08T01:23:41.628Z,18.33
2023-05-08T01:26:46.490Z,18.32
2023-05-08T01:29:42.502Z,18.12
2023-05-08T01:32:33.980Z,17.80
2023-05-08T01:35:14.377Z,18.14
2023-05-08T01:37:46.697Z,18.06
2023-05-08T01:40:28.797Z,18.06
2023-05-08T01:43:18.881Z,17.81
2023-05-08T01:45:52.886Z,18.06
2023-05-08T01:48:30.255Z,18.16
2023-05-08T01:51:04.338Z,18.14
2023-05-08T01:53:36.546Z,18.06
2023-05-08T01:56:12.690Z,18.25
2023-05-08T01:58:41.832Z,18.22
2023-05-08T02:01:11.339Z,18.22
2023-05-08T02:03:42.888Z,18.21
2023-05-08T02:06:12.094Z,18.27
2023-05-08T02:08:45.824Z,18.00
2023-05-08T02:11:17.769Z,18.28
2023-05-08T02:13:49.782Z,18.31
2023-05-08T02:16:18.932Z,18.31
2023-05-08T02:18:55.047Z,18.19
2023-05-08T02:21:24.115Z,18.10
2023-05-08T02:23:56.030Z,18.13
2023-05-08T02:26:24.636Z,18.13
2023-05-08T02:28:56.241Z,17.85
2023-05-08T02:31:28.374Z,18.18
2023-05-08T02:34:01.439Z,18.09
2023-05-08T02:36:31.016Z,18.14
2023-05-08T02:39:02.788Z,18.17
2023-05-08T02:41:32.512Z,18.32
2023-05-08T02:44:00.936Z,18.13
2023-05-08T02:46:38.189Z,18.08
2023-05-08T02:49:10.883Z,18.08
2023-05-08T02:51:45.792Z,18.13
2023-05-08T02:54:19.417Z,18.15
2023-05-08T02:57:07.114Z,18.05
2023-05-08T02:59:40.254Z,17.92
2023-05-08T03:02:30.549Z,17.94
2023-05-08T03:05:02.005Z,18.08
2023-05-08T03:07:31.582Z,18.14
2023-05-08T03:10:09.775Z,17.55
2023-05-08T03:12:42.909Z,18.23
2023-05-08T03:15:14.211Z,18.13
2023-05-08T03:17:47.989Z,18.00
2023-05-08T03:20:25.489Z,17.90
2023-05-08T03:22:55.499Z,17.34
2023-05-08T03:25:24.389Z,17.69
2023-05-08T03:27:53.609Z,17.65
2023-05-08T03:30:25.232Z,18.06
2023-05-08T03:33:04.795Z,18.19
2023-05-08T03:35:36.776Z,18.22
2023-05-08T03:38:05.706Z,18.30
2023-05-08T03:40:37.201Z,18.23
2023-05-08T03:43:07.340Z,18.29
2023-05-08T03:45:37.252Z,18.34
2023-05-08T03:48:06.293Z,17.84
2023-05-08T03:50:37.502Z,18.14
2023-05-08T03:53:08.215Z,17.89
2023-05-08T03:55:42.761Z,18.23
2023-05-08T03:58:19.777Z,17.95
2023-05-08T04:00:58.670Z,18.04
2023-05-08T04:03:29.645Z,17.68
2023-05-08T04:06:08.821Z,17.95
2023-05-08T04:08:57.650Z,17.96
2023-05-08T04:11:31.430Z,17.41
2023-05-08T04:14:03.701Z,17.98
2023-05-08T04:16:36.372Z,17.95
2023-05-08T04:19:09.760Z,17.95
2023-05-08T04:21:44.734Z,18.15
2023-05-08T04:24:14.867Z,17.72
2023-05-08T04:26:46.262Z,18.18
2023-05-08T04:29:15.074Z,17.46
2023-05-08T04:31:44.383Z,18.11
2023-05-08T04:34:12.719Z,18.04
2023-05-08T04:36:44.634Z,17.94
2023-05-08T04:39:22.555Z,17.95
2023-05-08T04:41:55.731Z,17.70
2023-05-08T04:44:23.947Z,17.91
2023-05-08T04:46:54.094Z,18.19
2023-05-08T04:49:22.626Z,18.29
2023-05-08T04:51:52.264Z,18.11
2023-05-08T04:54:23.341Z,17.83
2023-05-08T04:56:53.513Z,17.79
2023-05-08T04:59:23.721Z,17.80
2023-05-08T05:01:52.054Z,17.81
2023-05-08T05:04:20.451Z,17.88
2023-05-08T05:06:51.110Z,17.98
2023-05-08T05:09:23.959Z,17.99
2023-05-08T05:11:58.176Z,18.07
2023-05-08T05:14:34.590Z,18.11
2023-05-08T05:17:05.200Z,17.84
2023-05-08T05:19:33.715Z,17.65
2023-05-08T05:22:06.626Z,17.60
2023-05-08T05:24:39.996Z,17.57
2023-05-08T05:27:08.654Z,16.08
2023-05-08T05:29:39.288Z,17.92
2023-05-08T05:32:10.644Z,17.72
2023-05-08T05:34:42.530Z,17.71
2023-05-08T05:37:11.663Z,17.47
2023-05-08T05:39:41.968Z,17.28
2023-05-08T05:42:14.569Z,17.70
2023-05-08T05:44:42.598Z,17.92
2023-05-08T05:47:12.079Z,17.64
2023-05-08T05:49:43.449Z,17.67
2023-05-08T05:52:17.697Z,17.36
2023-05-08T05:54:50.532Z,17.52
2023-05-08T05:57:20.757Z,17.59
2023-05-08T05:59:49.815Z,17.37
2023-05-08T06:02:20.206Z,17.54
2023-05-08T06:04:50.375Z,17.49
2023-05-08T06:07:21.055Z,17.31
2023-05-08T06:09:53.207Z,17.40
2023-05-08T06:12:27.444Z,17.30
2023-05-08T06:14:59.472Z,17.44
2023-05-08T06:17:28.111Z,17.43
2023-05-08T06:20:05.568Z,17.00
2023-05-08T06:22:33.890Z,17.47
2023-05-08T06:25:10.131Z,17.49
2023-05-08T06:27:38.582Z,17.45
2023-05-08T06:30:10.999Z,17.65
2023-05-08T06:32:40.862Z,17.84
2023-05-08T06:35:12.397Z,17.86
2023-05-08T06:37:42.562Z,17.96
2023-05-08T06:40:19.473Z,17.89
2023-05-08T06:42:50.806Z,17.91
2023-05-08T06:45:19.416Z,17.69
2023-05-08T06:47:50.034Z,17.69
2023-05-08T06:50:18.429Z,17.90
2023-05-08T06:52:46.359Z,17.94
2023-05-08T06:55:16.577Z,17.63
2023-05-08T06:57:48.236Z,17.62
2023-05-08T07:00:17.645Z,17.74
2023-05-08T07:02:46.025Z,17.75
2023-05-08T07:05:15.839Z,17.84
2023-05-08T07:07:48.049Z,16.23
2023-05-08T07:10:21.158Z,18.00
2023-05-08T07:12:51.033Z,17.99
2023-05-08T07:15:26.411Z,18.00
2023-05-08T07:17:55.456Z,18.16
2023-05-08T07:20:24.802Z,17.98
2023-05-08T07:22:53.438Z,18.06
2023-05-08T07:25:23.545Z,17.96
2023-05-08T07:27:56.324Z,18.16
2023-05-08T07:30:28.758Z,18.03
2023-05-08T07:32:57.370Z,18.06
2023-05-08T07:35:27.540Z,17.99
2023-05-08T07:37:57.899Z,17.97
2023-05-08T07:40:30.865Z,17.94
2023-05-08T07:43:02.792Z,17.77
2023-05-08T07:45:37.932Z,17.97
2023-05-08T07:48:08.668Z,17.83
2023-05-08T07:50:37.103Z,17.86
2023-05-08T07:53:10.064Z,17.96
2023-05-08T07:55:39.968Z,17.88
2023-05-08T07:58:18.019Z,18.07
2023-05-08T08:00:48.214Z,18.19
2023-05-08T08:03:19.550Z,17.62
2023-05-08T08:05:49.040Z,18.28
2023-05-08T08:08:19.222Z,18.24
2023-05-08T08:10:52.261Z,18.35
2023-05-08T08:13:25.100Z,18.59
2023-05-08T08:15:58.457Z,18.61
2023-05-08T08:18:29.578Z,18.39
2023-05-08T08:20:58.649Z,17.72
2023-05-08T08:23:30.132Z,18.25
2023-05-08T08:26:20.160Z,18.11
2023-05-08T08:28:50.262Z,18.01
2023-05-08T08:31:21.730Z,18.12
2023-05-08T08:33:50.576Z,18.07
2023-05-08T08:36:21.960Z,18.08
2023-05-08T08:38:52.136Z,17.92
2023-05-08T08:41:24.026Z,17.93
2023-05-08T08:43:57.282Z,17.91
2023-05-08T08:46:29.560Z,17.95
2023-05-08T08:48:58.415Z,16.89
2023-05-08T08:51:31.320Z,18.00
2023-05-08T08:54:06.077Z,17.80
2023-05-08T08:56:36.956Z,18.14
2023-05-08T08:59:07.108Z,18.09
2023-05-08T09:01:36.173Z,18.08
2023-05-08T09:04:05.463Z,18.17
2023-05-08T09:06:39.416Z,17.30
2023-05-08T09:09:09.888Z,17.99
2023-05-08T09:11:46.861Z,18.10
2023-05-08T09:14:19.830Z,17.35
2023-05-08T09:16:50.879Z,17.83
2023-05-08T09:19:24.846Z,18.00
2023-05-08T09:22:01.746Z,18.25
2023-05-08T09:24:58.651Z,18.28
2023-05-08T09:27:36.486Z,17.98
2023-05-08T09:30:10.754Z,18.03
2023-05-08T09:32:40.897Z,18.01
2023-05-08T09:35:15.067Z,17.84
2023-05-08T09:37:50.459Z,18.07
2023-05-08T09:40:23.945Z,17.83
2023-05-08T09:42:53.729Z,17.83
2023-05-08T09:45:31.415Z,18.24
2023-05-08T09:48:01.707Z,18.32
2023-05-08T09:50:29.968Z,18.34
2023-05-08T09:52:58.969Z,18.22
2023-05-08T09:55:27.363Z,18.24
2023-05-08T09:58:00.540Z,18.36
2023-05-08T10:00:30.103Z,18.47
2023-05-08T10:03:04.318Z,18.41
2023-05-08T10:05:35.081Z,18.19
2023-05-08T10:08:22.077Z,18.50
2023-05-08T10:10:50.379Z,18.05
2023-05-08T10:13:21.897Z,18.43
2023-05-08T10:15:54.673Z,18.58
2023-05-08T10:18:27.950Z,17.50
2023-05-08T10:21:02.048Z,18.70
2023-05-08T10:23:36.355Z,18.77
2023-05-08T10:26:10.848Z,19.00
2023-05-08T10:28:46.707Z,18.98
2023-05-08T10:31:21.375Z,19.15
2023-05-08T10:33:52.592Z,19.48
2023-05-08T10:36:21.180Z,19.53
2023-05-08T10:38:51.476Z,19.72
2023-05-08T10:41:20.791Z,19.80
2023-05-08T10:43:53.466Z,19.80
2023-05-08T10:46:24.691Z,19.79
2023-05-08T10:49:01.085Z,19.62
2023-05-08T10:51:37.768Z,19.99
2023-05-08T10:54:11.164Z,20.07
2023-05-08T10:56:40.210Z,19.96
2023-05-08T10:59:19.349Z,19.49
2023-05-08T11:01:51.920Z,19.08
2023-05-08T11:04:33.509Z,19.68
2023-05-08T11:07:01.660Z,19.70
2023-05-08T11:09:50.296Z,19.79
2023-05-08T11:12:23.113Z,19.74
2023-05-08T11:15:05.493Z,19.76
2023-05-08T11:17:34.504Z,19.75
2023-05-08T11:20:07.312Z,19.80
2023-05-08T11:22:35.684Z,19.79
2023-05-08T11:25:08.819Z,19.71
2023-05-08T11:27:41.344Z,19.81
2023-05-08T11:30:25.424Z,19.62
2023-05-08T11:33:20.792Z,19.59
2023-05-08T11:35:57.462Z,19.39
2023-05-08T11:38:29.983Z,19.76
2023-05-08T11:41:03.427Z,19.88
2023-05-08T11:44:15.087Z,20.06
2023-05-08T11:46:56.980Z,19.96
2023-05-08T11:49:30.209Z,19.64
2023-05-08T11:52:02.815Z,20.06
2023-05-08T11:54:32.916Z,19.54
2023-05-08T11:57:01.895Z,19.84
2023-05-08T11:59:30.708Z,19.47
2023-05-08T12:02:08.420Z,19.56
2023-05-08T12:04:47.266Z,19.74
2023-05-08T12:07:19.012Z,19.67
2023-05-08T12:09:55.996Z,19.48
2023-05-08T12:12:25.068Z,19.24
2023-05-08T12:14:55.152Z,19.21
2023-05-08T12:17:25.335Z,19.37
2023-05-08T12:19:56.968Z,19.17
2023-05-08T12:22:28.494Z,19.52
2023-05-08T12:24:57.145Z,19.44
2023-05-08T12:27:26.719Z,19.49
2023-05-08T12:29:58.988Z,19.03
2023-05-08T12:32:43.150Z,18.97
2023-05-08T12:35:16.063Z,18.98
2023-05-08T12:37:49.939Z,19.11
2023-05-08T12:40:27.469Z,19.39
2023-05-08T12:42:59.019Z,19.03
2023-05-08T12:45:29.474Z,19.01
2023-05-08T12:48:04.473Z,18.87
2023-05-08T12:50:36.348Z,18.89
2023-05-08T12:53:05.940Z,19.15
2023-05-08T12:55:38.449Z,19.01
2023-05-08T12:58:09.160Z,19.49
2023-05-08T13:00:43.630Z,19.45
2023-05-08T13:03:15.751Z,19.36
2023-05-08T13:05:50.841Z,19.73
2023-05-08T13:08:19.269Z,20.09
2023-05-08T13:10:48.602Z,20.05
2023-05-08T13:13:24.773Z,19.99
2023-05-08T13:15:56.076Z,19.80
2023-05-08T13:18:27.951Z,19.80
2023-05-08T13:20:56.311Z,20.15
2023-05-08T13:23:24.522Z,20.10
2023-05-08T13:25:52.777Z,19.95
2023-05-08T13:28:20.983Z,20.41
2023-05-08T13:30:49.280Z,19.80
2023-05-08T13:33:19.165Z,19.91
2023-05-08T13:35:51.831Z,20.08
2023-05-08T13:38:37.455Z,20.10
2023-05-08T13:41:05.872Z,19.91
2023-05-08T13:43:37.002Z,19.78
2023-05-08T13:46:09.993Z,19.65
2023-05-08T13:48:40.824Z,19.31
2023-05-08T13:51:11.098Z,19.63
2023-05-08T13:53:39.373Z,19.84
2023-05-08T13:56:09.316Z,19.99
2023-05-08T13:58:37.421Z,19.20
2023-05-08T14:01:22.002Z,19.41
2023-05-08T14:03:58.701Z,19.66
2023-05-08T14:06:30.321Z,19.41
2023-05-08T14:09:07.584Z,19.43
2023-05-08T14:11:46.754Z,19.31
2023-05-08T14:14:14.538Z,19.15
2023-05-08T14:16:45.324Z,19.25
2023-05-08T14:19:13.608Z,19.14
2023-05-08T14:21:50.132Z,19.05
2023-05-08T14:24:24.176Z,18.70
2023-05-08T14:26:55.395Z,18.50
2023-05-08T14:29:23.688Z,18.28
2023-05-08T14:31:51.875Z,18.41
2023-05-08T14:34:20.765Z,18.65
2023-05-08T14:37:14.736Z,18.78
2023-05-08T14:39:45.612Z,18.88
2023-05-08T14:42:22.824Z,18.92
2023-05-08T14:44:53.127Z,18.82
2023-05-08T14:47:23.471Z,18.99
2023-05-08T14:49:53.510Z,19.01
2023-05-08T14:52:22.700Z,18.87
2023-05-08T14:54:53.767Z,18.58
2023-05-08T14:57:23.748Z,18.58
2023-05-08T14:59:55.244Z,18.89
2023-05-08T15:02:43.867Z,18.75
2023-05-08T15:05:20.002Z,18.56
2023-05-08T15:07:53.032Z,18.62
2023-05-08T15:10:23.040Z,18.84
2023-05-08T15:12:51.933Z,18.41
2023-05-08T15:15:21.921Z,18.45
2023-05-08T15:17:51.081Z,18.33
2023-05-08T15:20:21.966Z,18.36
2023-05-08T15:22:52.369Z,18.26
2023-05-08T15:25:30.448Z,18.10
2023-05-08T15:28:00.727Z,18.21
2023-05-08T15:30:33.178Z,18.28
2023-05-08T15:33:01.831Z,18.10
2023-05-08T15:35:29.865Z,18.09
2023-05-08T15:38:04.654Z,18.06
2023-05-08T15:40:34.692Z,18.03
2023-05-08T15:43:04.165Z,18.17
2023-05-08T15:45:32.454Z,18.43
2023-05-08T15:48:00.909Z,18.52
2023-05-08T15:50:34.447Z,18.19
2023-05-08T15:53:05.375Z,18.37
2023-05-08T15:55:33.158Z,18.58
2023-05-08T15:58:03.351Z,18.54
2023-05-08T16:00:44.159Z,18.61
2023-05-08T16:03:14.008Z,18.53
2023-05-08T16:05:44.102Z,18.14
2023-05-08T16:08:14.087Z,18.26
2023-05-08T16:10:46.352Z,18.27
2023-05-08T16:13:14.848Z,18.34
2023-05-08T16:15:43.517Z,18.46
2023-05-08T16:18:16.230Z,18.62
2023-05-08T16:20:47.860Z,18.57
2023-05-08T16:23:18.705Z,18.57
2023-05-08T16:25:49.886Z,18.47
2023-05-08T16:28:19.456Z,18.29
2023-05-08T16:30:47.841Z,18.35
2023-05-08T16:33:22.644Z,18.28
2023-05-08T16:35:50.778Z,18.24
2023-05-08T16:38:28.707Z,18.29
2023-05-08T16:41:03.391Z,18.41
2023-05-08T16:43:34.877Z,18.67
2023-05-08T16:46:05.158Z,18.66
2023-05-08T16:48:35.472Z,18.47
2023-05-08T16:51:03.802Z,18.42
2023-05-08T16:53:37.950Z,18.07
2023-05-08T16:56:06.307Z,18.46
2023-05-08T16:58:34.455Z,18.48
2023-05-08T17:01:07.683Z,18.57
2023-05-08T17:03:41.391Z,18.38
2023-05-08T17:06:12.266Z,18.53
2023-05-08T17:08:45.197Z,18.66
2023-05-08T17:11:19.138Z,18.80
2023-05-08T17:13:48.229Z,18.96
2023-05-08T17:16:19.777Z,18.89
2023-05-08T17:18:51.180Z,18.89
2023-05-08T17:21:25.615Z,19.12
2023-05-08T17:23:56.681Z,19.24
2023-05-08T17:26:30.051Z,19.16
2023-05-08T17:28:57.951Z,19.36
2023-05-08T17:31:28.300Z,19.32
2023-05-08T17:34:01.131Z,19.29
2023-05-08T17:36:33.391Z,19.46
2023-05-08T17:39:03.132Z,19.48
2023-05-08T17:41:32.074Z,19.50
2023-05-08T17:44:00.595Z,19.47
2023-05-08T17:46:28.509Z,19.47
2023-05-08T17:49:00.620Z,19.49
2023-05-08T17:54:14.710Z,19.83
2023-05-08T17:56:45.803Z,20.06
2023-05-08T17:59:16.557Z,19.32
2023-05-08T18:01:46.685Z,19.71
2023-05-08T18:04:21.005Z,19.84
2023-05-08T18:07:00.575Z,19.66
2023-05-08T18:09:33.306Z,19.44
2023-05-08T18:12:02.711Z,19.38
2023-05-08T18:14:31.337Z,19.46
2023-05-08T18:17:01.011Z,19.59
2023-05-08T18:19:30.915Z,19.35
2023-05-08T18:21:59.527Z,19.64
2023-05-08T18:24:32.122Z,19.77
2023-05-08T18:27:04.308Z,19.87
2023-05-08T18:29:42.436Z,19.96
2023-05-08T18:32:11.314Z,19.97
2023-05-08T18:34:46.514Z,20.00
2023-05-08T18:37:20.532Z,19.93
2023-05-08T18:39:55.090Z,19.99
2023-05-08T18:42:22.921Z,19.94
2023-05-08T18:44:52.847Z,19.60
2023-05-08T18:47:22.984Z,19.94
2023-05-08T18:49:52.000Z,19.64
2023-05-08T18:52:22.892Z,19.54
2023-05-08T18:55:08.507Z,19.67
2023-05-08T18:57:38.052Z,19.74
2023-05-08T19:00:18.811Z,19.54
2023-05-08T19:02:49.505Z,19.07
2023-05-08T19:05:17.928Z,19.39
2023-05-08T19:07:46.606Z,19.36
2023-05-08T19:10:24.057Z,19.48
2023-05-08T19:12:51.822Z,19.51
2023-05-08T19:15:25.209Z,19.42
2023-05-08T19:17:53.232Z,19.24
2023-05-08T19:20:25.751Z,19.26
2023-05-08T19:22:57.255Z,19.19
2023-05-08T19:25:27.341Z,19.10
2023-05-08T19:27:56.647Z,19.12
2023-05-08T19:30:24.757Z,19.06
2023-05-08T19:32:55.534Z,18.87
2023-05-08T19:35:23.795Z,18.65
2023-05-08T19:37:51.932Z,18.58
2023-05-08T19:40:20.058Z,18.85
2023-05-08T19:42:55.678Z,18.80
2023-05-08T19:45:23.648Z,18.36
2023-05-08T19:47:55.943Z,18.47
2023-05-08T19:50:24.465Z,18.34
2023-05-08T19:52:56.656Z,18.56
2023-05-08T19:55:31.055Z,18.48
2023-05-08T19:58:05.668Z,18.24
2023-05-08T20:00:35.117Z,18.22
2023-05-08T20:03:06.228Z,18.23
2023-05-08T20:05:35.457Z,18.09
2023-05-08T20:08:03.305Z,18.09
2023-05-08T20:10:32.977Z,18.43
2023-05-08T20:13:06.439Z,18.75
2023-05-08T20:15:40.075Z,18.58
2023-05-08T20:18:09.650Z,18.04
2023-05-08T20:20:49.580Z,18.14
2023-05-08T20:23:19.464Z,18.02
2023-05-08T20:26:09.675Z,17.88
2023-05-08T20:28:39.855Z,17.91
2023-05-08T20:31:08.126Z,18.18
2023-05-08T20:33:36.802Z,18.31
2023-05-08T20:36:10.384Z,18.53
2023-05-08T20:38:41.462Z,18.35
2023-05-08T20:41:12.683Z,18.32
2023-05-08T20:43:45.329Z,18.30
2023-05-08T20:46:24.670Z,18.44
2023-05-08T20:48:59.564Z,18.24
2023-05-08T20:51:27.884Z,18.17
2023-05-08T20:54:01.853Z,18.20
2023-05-08T20:56:30.678Z,16.72
2023-05-08T20:59:02.040Z,17.87
2023-05-08T21:01:38.144Z,17.73
2023-05-08T21:04:13.271Z,17.77
2023-05-08T21:06:43.094Z,17.89
2023-05-08T21:09:17.189Z,17.72
2023-05-08T21:11:46.230Z,17.48
2023-05-08T21:14:20.404Z,17.84
2023-05-08T21:16:49.415Z,17.39
2023-05-08T21:19:19.285Z,16.65
2023-05-08T21:21:48.000Z,16.96
2023-05-08T21:24:16.046Z,16.95
2023-05-08T21:26:48.226Z,17.09
2023-05-08T21:29:17.630Z,17.15
2023-05-08T21:31:47.334Z,16.86
2023-05-08T21:34:16.800Z,16.48
2023-05-08T21:36:44.887Z,16.18
2023-05-08T21:39:12.704Z,16.26
2023-05-08T21:41:44.399Z,15.85
2023-05-08T21:44:13.050Z,16.05
2023-05-08T21:46:43.303Z,14.48
2023-05-08T21:49:15.092Z,15.84
2023-05-08T21:51:48.994Z,15.79
2023-05-08T21:54:20.897Z,16.35
2023-05-08T21:56:51.368Z,16.26
2023-05-08T21:59:24.073Z,15.93
2023-05-08T22:02:06.109Z,15.77
2023-05-08T22:04:36.549Z,15.83
2023-05-08T22:07:06.016Z,16.30
2023-05-08T22:09:34.250Z,16.66
2023-05-08T22:12:02.432Z,16.76
2023-05-08T22:14:32.413Z,16.89
2023-05-08T22:17:02.926Z,17.10
2023-05-08T22:19:36.503Z,17.54
2023-05-08T22:22:04.756Z,17.14
2023-05-08T22:24:45.798Z,17.10
2023-05-08T22:27:18.300Z,17.12
2023-05-08T22:29:46.828Z,17.06
2023-05-08T22:32:24.711Z,17.26
2023-05-08T22:34:58.491Z,17.18
2023-05-08T22:37:26.680Z,16.63
2023-05-08T22:40:01.150Z,17.04
2023-05-08T22:42:38.133Z,17.23
2023-05-08T22:45:14.443Z,17.30
2023-05-08T22:47:44.262Z,17.19
2023-05-08T22:50:28.379Z,17.17
2023-05-08T22:52:56.451Z,17.27
2023-05-08T22:55:27.229Z,17.09
2023-05-08T22:57:59.797Z,17.31
2023-05-08T23:00:28.936Z,16.87
2023-05-08T23:03:01.400Z,17.01
2023-05-08T23:05:32.955Z,17.14
2023-05-08T23:08:02.879Z,16.97
2023-05-08T23:10:32.663Z,16.93
2023-05-08T23:13:02.651Z,16.80
2023-05-08T23:15:30.841Z,16.82
2023-05-08T23:18:03.707Z,17.05
2023-05-08T23:20:34.168Z,17.09
2023-05-08T23:23:02.351Z,16.98
2023-05-08T23:25:34.486Z,16.80
2023-05-08T23:28:05.787Z,16.70
2023-05-08T23:30:35.168Z,17.04
2023-05-08T23:33:10.021Z,17.20
2023-05-08T23:35:38.467Z,16.68
2023-05-08T23:38:06.430Z,17.15
2023-05-08T23:40:34.191Z,16.91
2023-05-08T23:43:02.616Z,16.44
2023-05-08T23:45:33.621Z,16.38
2023-05-08T23:48:04.992Z,16.34
2023-05-08T23:50:35.814Z,16.23
2023-05-08T23:53:03.818Z,16.07
2023-05-08T23:55:36.092Z,15.96
2023-05-08T23:58:07.633Z,16.46
